Strona główna
METAR-TAF:

METAR-TAF

Lotnisko :

Port lotniczy Metz/Nancy-Lotaryngia

Metz-Nancy-Lorraine, Francja

Szerokość geograficzna: 48-59N, Długość geograficzna: 006-15E, wysokość: 264 m

Aktualna obserwacja pogody

Raport powstał 24 minut temu, godzina 13:00 UTC
Wiatr 8 kt od wschód, zmienny między wschodnio-północny wschód i południowy wschód
Temperatura 28°C
Wilgotność 45%
Ciśnienie 1019 hPa
Widzialność 10 km lub więcej
Brak chmur poniżej 1500 m i brak chmur cumulonimbus

METAR: LFJL 241300Z AUTO 10008KT 060V140 CAVOK 28/15 Q1019 NOSIG

czas: 15:24 (13:24 UTC)

Prognoza

Raport powstał 2 godziny i 24 minut temu, godzina 11:00 UTC
Prognoza ważna od 24 godzina 12 UTC do 25 godzina 12 UTC
Wiatr 8 kt od wschód
Widzialność 10 km lub więcej
Brak chmur poniżej 1500 m i brak chmur cumulonimbus
Stopniowe zmiany
od 24 godzina 21 UTC do 24 godzina 23 UTC
Wiatr 3 kt z kierunków zmiennych

TAF: LFJL 241100Z 2412/2512 10008KT CAVOK BECMG 2421/2423 VRB03KT

Obserwacja i prognoza pogody dla ponad 4000 lotnisk (raport METAR i TAF).

Dostępne stacje oznaczono żółtymi i czerwonymi punktami na mapie.

Najedź kursorem aby zobaczyć nazwę stacji.

Kliknij aby zobaczyć obserwacje i prognozy pogody.

Aby zmienić mapę: kliknij na zielony przycisk z czarnym krzyżykiem, aby powiększyć; na zielony przycisk z myślnikiem, aby pomniejszyć; na zielone strzałki, aby przejść do map sąsiednich.


METAR-TAF: